Time;durP1;ratioP1;P1;durP2;ratioP2;P2;SDS_P1;SDS_P2;PMS_P1;PMS_P2;Temp;Humidity;BMP_temperature;BMP_pressure;BME280_temperature;BME280_humidity;BME280_pressure;Samples;Min_cycle;Max_cycle;Signal;HPM_P1;HPM_P2
2022/07/12 00:00:34;;;;;;;6.97;5.60;;;;;;;18.00;90.94;102524.88;5007135;28;20033;-63
2022/07/12 00:02:59;;;;;;;5.63;4.97;;;;;;;17.97;91.23;102522.31;5008686;28;20128;-63
2022/07/12 00:05:25;;;;;;;8.65;4.95;;;;;;;17.96;90.96;102531.22;5008690;28;20064;-63
2022/07/12 00:07:50;;;;;;;6.03;4.80;;;;;;;17.93;91.42;102526.88;5028526;28;20029;-64
2022/07/12 00:10:15;;;;;;;7.75;5.38;;;;;;;17.89;91.48;102522.59;5027112;28;20487;-64
2022/07/12 00:12:41;;;;;;;7.13;5.20;;;;;;;17.85;91.36;102524.50;5008619;28;20412;-62
2022/07/12 00:15:07;;;;;;;9.25;5.05;;;;;;;17.82;91.19;102519.28;5007369;28;20030;-64
2022/07/12 00:17:32;;;;;;;5.75;4.60;;;;;;;17.80;91.26;102521.16;5018281;28;20068;-64
2022/07/12 00:19:57;;;;;;;4.90;4.50;;;;;;;17.77;91.28;102532.81;5028022;28;20057;-64
2022/07/12 00:22:23;;;;;;;5.97;4.72;;;;;;;17.76;91.09;102517.72;5026535;28;20097;-63
2022/07/12 00:24:48;;;;;;;5.30;4.70;;;;;;;17.75;91.49;102524.00;5027571;28;20113;-64
2022/07/12 00:27:14;;;;;;;5.35;4.55;;;;;;;17.74;90.86;102529.38;5014315;28;20023;-63
2022/07/12 00:29:39;;;;;;;6.70;4.75;;;;;;;17.71;91.17;102527.72;4987820;28;20073;-64
2022/07/12 00:32:05;;;;;;;6.95;4.70;;;;;;;17.71;91.34;102529.50;4995314;28;20646;-64
2022/07/12 00:34:30;;;;;;;7.85;5.38;;;;;;;17.71;91.24;102513.50;5027633;28;20120;-63
2022/07/12 00:36:55;;;;;;;5.28;4.75;;;;;;;17.72;91.49;102525.88;5024522;28;20048;-64
2022/07/12 00:39:21;;;;;;;14.50;4.97;;;;;;;17.71;91.47;102527.72;5006965;28;20029;-63
2022/07/12 00:41:49;;;;;;;6.80;4.93;;;;;;;17.67;91.47;102532.28;5007395;28;20032;-63
2022/07/12 00:44:15;;;;;;;10.02;5.07;;;;;;;17.65;91.43;102534.13;5022428;28;20018;-64
2022/07/12 00:46:40;;;;;;;6.57;4.47;;;;;;;17.64;91.09;102534.19;5006675;28;20051;-63
2022/07/12 00:49:05;;;;;;;6.60;4.60;;;;;;;17.63;90.76;102529.78;5005672;28;20029;-62
2022/07/12 00:51:31;;;;;;;6.00;4.80;;;;;;;17.60;90.79;102535.22;5020881;28;20034;-64
2022/07/12 00:53:57;;;;;;;6.43;4.47;;;;;;;17.58;90.83;102532.59;5025624;28;20325;-64
2022/07/12 00:56:23;;;;;;;4.57;4.15;;;;;;;17.57;90.81;102530.88;5026099;28;20029;-62
2022/07/12 00:58:48;;;;;;;11.35;4.53;;;;;;;17.55;90.90;102524.75;5026063;28;20424;-63
2022/07/12 01:01:13;;;;;;;6.65;4.00;;;;;;;17.56;90.85;102523.81;5025791;28;20042;-63
2022/07/12 01:03:39;;;;;;;6.00;4.70;;;;;;;17.59;91.14;102522.81;5033970;22;20037;-63
2022/07/12 01:06:04;;;;;;;5.78;4.30;;;;;;;17.65;91.22;102518.16;4985168;28;20076;-63
2022/07/12 01:08:30;;;;;;;4.57;4.15;;;;;;;17.75;90.58;102512.44;4987448;28;20030;-63
2022/07/12 01:10:56;;;;;;;4.32;3.92;;;;;;;17.74;90.43;102508.06;4991980;28;20088;-65
2022/07/12 01:13:21;;;;;;;5.78;4.35;;;;;;;17.74;90.44;102513.38;5005936;28;20091;-64
2022/07/12 01:15:47;;;;;;;4.60;4.18;;;;;;;17.71;90.21;102508.16;4998028;28;20492;-62
2022/07/12 01:18:13;;;;;;;5.22;4.13;;;;;;;17.69;89.96;102505.56;4986637;28;20220;-63
2022/07/12 01:20:39;;;;;;;8.25;4.05;;;;;;;17.67;90.71;102494.09;4991466;28;20112;-63
2022/07/12 01:23:04;;;;;;;5.65;3.85;;;;;;;17.74;90.55;102494.72;5007522;28;20025;-64
2022/07/12 01:25:29;;;;;;;4.22;3.83;;;;;;;17.77;90.37;102487.50;5005733;28;20132;-63
2022/07/12 01:27:55;;;;;;;4.32;3.92;;;;;;;17.86;90.34;102482.72;5007209;28;20087;-63
2022/07/12 01:30:20;;;;;;;6.40;3.70;;;;;;;17.93;89.48;102487.75;5004658;28;20491;-63
2022/07/12 01:32:46;;;;;;;3.92;3.63;;;;;;;17.92;89.03;102490.47;4989989;28;20034;-62
2022/07/12 01:35:12;;;;;;;4.60;4.15;;;;;;;17.86;89.33;102494.25;5004741;28;20041;-64
2022/07/12 01:37:40;;;;;;;4.55;4.03;;;;;;;17.81;89.07;102498.88;4971124;28;20422;-63
2022/07/12 01:40:08;;;;;;;4.78;3.83;;;;;;;17.80;88.77;102505.16;4967706;28;20027;-64
2022/07/12 01:42:33;;;;;;;5.22;3.63;;;;;;;17.79;88.86;102506.09;4983900;28;20034;-63
2022/07/12 01:44:59;;;;;;;3.90;3.55;;;;;;;17.75;88.61;102507.13;4985095;28;20484;-65
2022/07/12 01:47:27;;;;;;;4.38;3.97;;;;;;;17.71;88.99;102521.50;4999517;28;20034;-63
2022/07/12 01:49:52;;;;;;;4.03;3.63;;;;;;;17.65;88.83;102518.16;5006577;28;20369;-63
2022/07/12 01:52:18;;;;;;;3.70;3.40;;;;;;;17.63;88.96;102513.78;5005492;28;20088;-63
2022/07/12 01:54:44;;;;;;;3.72;3.30;;;;;;;17.64;88.89;102519.06;5004956;28;20029;-63
2022/07/12 01:57:09;;;;;;;5.60;3.88;;;;;;;17.62;89.30;102523.59;4994919;28;20034;-63
2022/07/12 01:59:35;;;;;;;3.92;3.20;;;;;;;17.59;89.05;102521.03;4984998;28;20041;-62
2022/07/12 02:02:01;;;;;;;4.63;4.20;;;;;;;17.57;89.29;102522.03;4990474;28;20108;-63
2022/07/12 02:04:27;;;;;;;8.25;4.22;;;;;;;17.53;89.53;102523.91;5005889;28;20156;-64
2022/07/12 02:06:52;;;;;;;5.15;3.95;;;;;;;17.48;89.91;102525.88;5000691;28;20061;-64
2022/07/12 02:09:18;;;;;;;4.30;3.90;;;;;;;17.48;90.04;102525.88;4967711;28;20030;-62
2022/07/12 02:11:44;;;;;;;4.60;4.20;;;;;;;17.45;89.92;102526.00;4966787;28;20057;-63
2022/07/12 02:14:12;;;;;;;5.30;4.25;;;;;;;17.43;90.05;102524.25;4966877;28;20041;-63
2022/07/12 02:16:38;;;;;;;4.93;4.53;;;;;;;17.45;89.86;102520.69;4970711;28;20034;-59
2022/07/12 02:19:03;;;;;;;4.78;4.32;;;;;;;17.41;90.05;102523.44;4986907;28;20106;-62
2022/07/12 02:21:28;;;;;;;4.95;4.40;;;;;;;17.37;90.00;102524.47;4986067;28;20042;-64
2022/07/12 02:23:54;;;;;;;4.72;4.32;;;;;;;17.40;89.90;102524.34;5006067;28;20472;-62
2022/07/12 02:26:19;;;;;;;6.35;4.10;;;;;;;17.34;89.79;102521.91;5005227;28;20050;-63
2022/07/12 02:28:45;;;;;;;5.13;4.43;;;;;;;17.30;89.97;102517.63;4966863;28;20031;-64
2022/07/12 02:31:10;;;;;;;5.55;4.82;;;;;;;17.27;89.78;102520.38;4965905;28;20034;-63
2022/07/12 02:33:36;;;;;;;7.03;4.57;;;;;;;17.24;90.34;102507.19;4999771;28;20022;-62
2022/07/12 02:36:01;;;;;;;4.75;4.32;;;;;;;17.27;90.75;102507.06;5005005;28;21339;-63
2022/07/12 02:38:27;;;;;;;6.00;3.83;;;;;;;17.33;90.89;102501.53;4996596;28;20030;-62
2022/07/12 02:40:55;;;;;;;5.55;4.57;;;;;;;17.39;90.43;102501.31;4982256;28;20188;-63
2022/07/12 02:43:24;;;;;;;4.60;4.18;;;;;;;17.42;90.83;102509.19;4984412;28;20106;-64
2022/07/12 02:45:50;;;;;;;5.13;4.60;;;;;;;17.47;90.32;102508.16;4983651;28;20327;-63
2022/07/12 02:48:15;;;;;;;5.53;4.93;;;;;;;17.49;89.77;102511.63;4982565;28;20022;-63
2022/07/12 02:50:41;;;;;;;7.47;4.72;;;;;;;17.47;90.28;102508.16;5004899;28;20052;-63
2022/07/12 02:53:07;;;;;;;5.25;4.75;;;;;;;17.39;90.57;102517.28;5004739;28;20040;-61
2022/07/12 02:55:32;;;;;;;6.43;5.07;;;;;;;17.35;89.85;102512.13;5003371;28;20038;-64
2022/07/12 02:57:58;;;;;;;5.45;4.47;;;;;;;17.34;90.23;102515.72;5004651;28;20037;-63
2022/07/12 03:00:23;;;;;;;6.25;4.70;;;;;;;17.30;90.00;102522.94;4991490;28;20026;-61
2022/07/12 03:02:48;;;;;;;6.10;5.28;;;;;;;17.32;90.25;102513.13;4985349;28;20327;-63
2022/07/12 03:05:14;;;;;;;7.32;5.72;;;;;;;17.32;89.89;102521.09;4993046;28;20050;-64
2022/07/12 03:07:39;;;;;;;7.85;5.85;;;;;;;17.29;89.81;102521.22;5004794;28;20498;-63
2022/07/12 03:10:05;;;;;;;5.60;5.10;;;;;;;17.27;90.22;102523.06;4997596;28;20465;-64
2022/07/12 03:12:30;;;;;;;7.82;7.03;;;;;;;17.25;90.24;102530.25;4984960;28;20411;-63
2022/07/12 03:14:55;;;;;;;8.82;5.53;;;;;;;17.26;90.27;102534.66;4988096;28;20030;-63
2022/07/12 03:17:21;;;;;;;8.88;6.00;;;;;;;17.23;90.07;102529.41;5004971;28;20058;-64
2022/07/12 03:19:46;;;;;;;7.22;6.53;;;;;;;17.18;90.07;102534.91;5003113;28;20036;-64
2022/07/12 03:22:12;;;;;;;8.63;6.50;;;;;;;17.11;90.30;102528.94;5004189;28;20153;-64
2022/07/12 03:24:37;;;;;;;7.85;6.28;;;;;;;17.12;90.58;102522.69;5003769;28;20028;-62
2022/07/12 03:27:03;;;;;;;6.75;6.10;;;;;;;17.08;90.69;102529.03;4989177;28;20117;-64
2022/07/12 03:29:28;;;;;;;9.35;6.68;;;;;;;17.05;90.98;102529.13;4983829;28;20085;-64
2022/07/12 03:31:53;;;;;;;7.18;5.78;;;;;;;17.03;90.82;102537.16;4971584;28;20023;-63
2022/07/12 03:34:19;;;;;;;7.32;6.32;;;;;;;17.01;90.86;102544.31;4992254;28;20045;-64
2022/07/12 03:36:44;;;;;;;7.95;6.82;;;;;;;17.02;91.24;102537.19;5003542;28;20030;-63
2022/07/12 03:39:10;;;;;;;8.02;7.00;;;;;;;17.02;91.25;102537.19;4993488;28;20030;-63
2022/07/12 03:41:35;;;;;;;7.68;6.97;;;;;;;17.02;91.26;102534.53;4985063;28;20950;-63
2022/07/12 03:44:00;;;;;;;8.57;7.47;;;;;;;17.04;91.64;102528.22;4990735;28;20392;-65
2022/07/12 03:46:26;;;;;;;9.25;7.43;;;;;;;17.08;91.94;102525.50;5003992;28;20591;-63
2022/07/12 03:48:51;;;;;;;7.72;6.93;;;;;;;17.10;91.75;102537.81;5001912;28;20507;-63
2022/07/12 03:51:16;;;;;;;8.50;7.68;;;;;;;17.11;91.93;102536.03;5004093;28;20053;-63
2022/07/12 03:53:42;;;;;;;8.05;7.13;;;;;;;17.14;91.64;102542.16;4998223;28;20114;-63
2022/07/12 03:56:07;;;;;;;10.00;8.02;;;;;;;17.16;91.77;102534.09;4965948;28;20030;-62
2022/07/12 03:58:32;;;;;;;9.27;8.20;;;;;;;17.19;91.91;102536.66;4964131;28;20031;-63
2022/07/12 04:00:58;;;;;;;8.77;7.50;;;;;;;17.24;92.12;102533.81;5005233;28;20476;-63
2022/07/12 04:03:23;;;;;;;7.60;6.65;;;;;;;17.29;92.05;102535.41;5003160;28;20020;-62
2022/07/12 04:05:48;;;;;;;8.38;7.38;;;;;;;17.34;92.00;102524.56;4985684;28;20059;-62
2022/07/12 04:08:13;;;;;;;9.98;8.52;;;;;;;17.39;92.27;102524.41;4984035;28;20031;-64
2022/07/12 04:10:39;;;;;;;10.02;8.60;;;;;;;17.47;91.82;102529.47;4999077;28;20113;-63
2022/07/12 04:13:04;;;;;;;9.80;8.27;;;;;;;17.53;91.93;102531.91;5004094;28;20072;-63
2022/07/12 04:15:29;;;;;;;9.68;8.52;;;;;;;17.59;91.46;102531.69;5002872;28;20022;-64
2022/07/12 04:17:55;;;;;;;10.25;8.10;;;;;;;17.65;91.31;102531.47;5004116;28;20025;-63
2022/07/12 04:20:20;;;;;;;13.43;7.43;;;;;;;17.74;91.14;102542.72;5002719;28;20022;-64
2022/07/12 04:22:45;;;;;;;9.52;8.52;;;;;;;17.80;90.76;102538.03;5003956;28;20411;-63
2022/07/12 04:25:11;;;;;;;9.55;8.55;;;;;;;17.85;91.00;102544.97;4994304;28;20593;-63
2022/07/12 04:27:37;;;;;;;7.93;7.13;;;;;;;17.93;90.73;102543.75;4984807;28;20036;-63
2022/07/12 04:30:03;;;;;;;9.40;7.95;;;;;;;17.99;90.05;102537.31;4989165;28;20034;-62
2022/07/12 04:32:28;;;;;;;8.90;7.50;;;;;;;18.08;89.48;102540.53;5002526;28;20087;-64
2022/07/12 04:34:53;;;;;;;7.15;6.30;;;;;;;18.23;89.39;102545.31;4998489;28;20022;-64
2022/07/12 04:37:19;;;;;;;8.60;7.70;;;;;;;18.35;88.37;102545.75;4984313;28;20019;-63
2022/07/12 04:39:44;;;;;;;9.20;7.75;;;;;;;18.40;87.87;102547.34;4982184;28;20054;-63
2022/07/12 04:42:09;;;;;;;9.05;7.75;;;;;;;18.44;88.07;102537.38;4968561;28;20027;-63
2022/07/12 04:44:35;;;;;;;10.23;6.93;;;;;;;18.50;88.04;102541.59;4967250;28;20034;-63
2022/07/12 04:47:00;;;;;;;7.60;6.30;;;;;;;18.63;87.58;102536.66;4987396;28;20034;-63
2022/07/12 04:49:26;;;;;;;7.38;6.00;;;;;;;18.75;86.79;102536.13;4987024;28;20207;-64
2022/07/12 04:51:51;;;;;;;7.72;6.13;;;;;;;18.84;85.96;102537.53;4987273;28;20042;-64
2022/07/12 04:54:17;;;;;;;5.38;4.90;;;;;;;18.97;85.46;102529.91;4987629;28;20022;-64
2022/07/12 04:56:42;;;;;;;5.22;4.47;;;;;;;19.17;84.53;102537.06;4987002;28;20042;-63
2022/07/12 04:59:07;;;;;;;5.88;5.28;;;;;;;19.32;84.16;102535.53;4986365;28;20039;-64
2022/07/12 05:01:33;;;;;;;7.78;6.88;;;;;;;19.39;83.30;102538.78;4999058;28;20041;-63
2022/07/12 05:03:58;;;;;;;7.15;6.00;;;;;;;19.44;83.43;102534.13;5006701;28;20072;-63
2022/07/12 05:06:24;;;;;;;8.32;6.72;;;;;;;19.54;82.89;102536.38;4995902;28;20034;-62
2022/07/12 05:08:50;;;;;;;5.40;4.45;;;;;;;19.55;82.78;102540.78;4987442;28;20026;-65
2022/07/12 05:11:15;;;;;;;8.40;6.90;;;;;;;19.70;82.19;102547.25;4993266;28;20117;-65
2022/07/12 05:13:40;;;;;;;5.55;5.05;;;;;;;19.74;81.43;102538.13;5006126;28;20462;-64
2022/07/12 05:16:07;;;;;;;6.80;5.75;;;;;;;19.78;81.14;102547.75;5006036;28;20109;-63
2022/07/12 05:18:33;;;;;;;5.70;5.10;;;;;;;19.88;80.71;102550.88;5007217;28;20117;-63
2022/07/12 05:20:58;;;;;;;5.75;5.10;;;;;;;19.98;80.62;102542.44;5005340;28;20329;-62
2022/07/12 05:23:24;;;;;;;10.82;5.38;;;;;;;20.03;80.41;102556.47;5006908;28;20056;-64
2022/07/12 05:25:49;;;;;;;11.00;8.18;;;;;;;20.03;79.76;102554.69;5005107;28;20073;-62
2022/07/12 05:28:15;;;;;;;6.82;5.32;;;;;;;20.11;80.02;102564.13;5006241;28;20116;-64
2022/07/12 05:30:42;;;;;;;7.68;6.97;;;;;;;20.13;80.17;102565.81;5005863;28;20468;-63
2022/07/12 05:33:07;;;;;;;7.90;7.10;;;;;;;20.15;80.26;102569.28;4988368;28;20030;-63
2022/07/12 05:35:32;;;;;;;9.57;7.57;;;;;;;20.19;80.29;102564.63;4986731;28;20081;-63
2022/07/12 05:37:58;;;;;;;7.53;6.60;;;;;;;20.38;79.39;102566.44;4985645;28;20079;-64
2022/07/12 05:40:23;;;;;;;9.45;6.82;;;;;;;20.42;79.25;102566.22;4985960;28;20706;-63
2022/07/12 05:42:49;;;;;;;11.18;7.13;;;;;;;20.40;79.15;102568.09;4997520;28;20061;-64
2022/07/12 05:45:14;;;;;;;6.65;5.68;;;;;;;20.45;78.73;102563.41;5005244;28;20121;-65
2022/07/12 05:47:39;;;;;;;9.95;7.47;;;;;;;20.56;78.15;102573.56;5004870;28;20128;-64
2022/07/12 05:50:05;;;;;;;7.93;7.13;;;;;;;20.62;78.16;102564.34;5006314;28;20453;-63
2022/07/12 05:55:14;;;;;;;10.43;6.72;;;;;;;20.69;77.68;102567.59;4967646;28;20084;-64
2022/07/12 05:57:40;;;;;;;5.65;5.15;;;;;;;20.75;78.03;102569.09;4980144;28;20026;-63
2022/07/12 06:00:05;;;;;;;6.35;5.75;;;;;;;20.68;77.98;102579.28;5005415;28;20121;-63
2022/07/12 06:02:31;;;;;;;8.18;7.38;;;;;;;20.73;77.98;102570.97;5004327;28;20042;-64
2022/07/12 06:04:56;;;;;;;9.68;7.35;;;;;;;20.71;77.85;102566.59;5005470;28;20323;-64
2022/07/12 06:07:22;;;;;;;12.45;6.50;;;;;;;20.70;78.05;102570.22;5004409;28;20056;-63
2022/07/12 06:09:47;;;;;;;9.40;6.53;;;;;;;20.79;78.07;102570.69;5006283;28;20022;-63
2022/07/12 06:12:12;;;;;;;8.63;7.43;;;;;;;20.76;78.03;102568.16;5004000;28;20119;-64
2022/07/12 06:14:38;;;;;;;8.45;7.63;;;;;;;20.74;77.56;102568.22;5003680;28;20018;-62
2022/07/12 06:17:04;;;;;;;11.30;8.68;;;;;;;20.79;77.73;102573.38;5005466;28;20058;-65
2022/07/12 06:19:29;;;;;;;8.68;7.75;;;;;;;20.79;77.91;102570.69;4986675;28;20022;-64
2022/07/12 06:21:55;;;;;;;9.65;8.40;;;;;;;20.86;77.58;102569.44;4985324;28;20403;-64
2022/07/12 06:24:20;;;;;;;7.82;6.55;;;;;;;20.90;77.77;102573.75;5000966;28;20472;-63
2022/07/12 06:26:45;;;;;;;11.27;9.30;;;;;;;21.02;76.63;102572.25;5003275;28;20065;-63
2022/07/12 06:29:10;;;;;;;11.10;7.00;;;;;;;21.10;77.23;102569.16;4989121;28;20022;-64
2022/07/12 06:31:36;;;;;;;10.52;8.63;;;;;;;21.09;76.78;102575.47;4983896;28;20026;-65
2022/07/12 06:34:01;;;;;;;9.63;8.10;;;;;;;21.21;77.19;102577.53;4991746;28;20033;-63
2022/07/12 06:36:27;;;;;;;10.55;8.85;;;;;;;21.24;76.33;102575.63;5004640;28;20083;-64
2022/07/12 06:38:52;;;;;;;11.18;7.70;;;;;;;21.43;76.35;102578.22;5004083;28;20029;-63
2022/07/12 06:41:17;;;;;;;11.45;9.07;;;;;;;21.51;75.19;102576.00;5005110;28;20100;-65
2022/07/12 06:43:43;;;;;;;10.25;9.20;;;;;;;21.51;75.85;102575.13;5000242;28;20429;-64
2022/07/12 06:46:08;;;;;;;10.18;9.07;;;;;;;21.62;74.90;102577.22;4985576;28;20065;-64
2022/07/12 06:48:33;;;;;;;10.15;9.15;;;;;;;21.62;75.15;102572.75;4984582;28;20046;-64
2022/07/12 06:50:59;;;;;;;10.02;8.80;;;;;;;21.77;75.03;102589.88;4986041;28;20037;-63
2022/07/12 06:53:24;;;;;;;15.55;10.13;;;;;;;21.90;74.31;102590.03;4984474;28;20396;-64
2022/07/12 06:55:50;;;;;;;11.18;8.82;;;;;;;22.07;73.53;102596.31;5003152;28;20392;-64
2022/07/12 06:58:16;;;;;;;11.35;8.68;;;;;;;22.11;73.20;102589.81;5003236;28;20471;-65
2022/07/12 07:00:42;;;;;;;12.73;7.63;;;;;;;22.15;72.35;102596.75;4973161;28;20037;-63
2022/07/12 07:03:08;;;;;;;8.65;7.82;;;;;;;22.07;72.05;102596.31;4964413;28;20026;-63
2022/07/12 07:05:34;;;;;;;11.65;8.18;;;;;;;22.06;72.20;102594.56;4975156;28;20052;-64
2022/07/12 07:07:59;;;;;;;11.88;8.48;;;;;;;22.03;71.79;102589.38;4984223;28;20049;-62
2022/07/12 07:10:24;;;;;;;9.02;7.45;;;;;;;22.12;72.19;102588.84;4984231;28;20512;-62
2022/07/12 07:12:50;;;;;;;7.70;6.70;;;;;;;22.32;72.20;102590.44;4982439;28;20025;-63
2022/07/12 07:15:16;;;;;;;10.73;7.85;;;;;;;22.24;72.11;102587.28;4996814;28;20427;-61
2022/07/12 07:17:42;;;;;;;9.85;7.53;;;;;;;22.31;71.82;102588.69;5004444;28;20461;-66
2022/07/12 07:20:11;;;;;;;11.38;6.90;;;;;;;22.59;71.21;102586.28;5002099;28;20468;-65
2022/07/12 07:22:37;;;;;;;12.90;7.40;;;;;;;22.64;70.65;102584.22;5004806;28;20053;-64
2022/07/12 07:25:03;;;;;;;10.48;7.35;;;;;;;22.94;69.83;102583.34;4986227;28;20077;-65
2022/07/12 07:27:29;;;;;;;11.32;7.47;;;;;;;23.17;68.86;102586.47;4964436;28;20139;-65
2022/07/12 07:32:38;;;;;;;9.63;7.38;;;;;;;23.50;68.79;102578.31;4983761;28;20061;-64
2022/07/12 07:35:05;;;;;;;12.23;7.88;;;;;;;23.37;69.13;102580.88;4990062;28;20485;-64
2022/07/12 07:37:31;;;;;;;9.15;7.97;;;;;;;23.46;69.03;102578.50;5003903;28;20022;-66
2022/07/12 07:39:56;;;;;;;9.15;7.75;;;;;;;23.54;69.02;102583.38;4998231;28;20026;-65
2022/07/12 07:42:22;;;;;;;10.25;7.80;;;;;;;23.73;68.26;102582.25;4982924;28;20023;-64
2022/07/12 07:44:47;;;;;;;10.98;8.13;;;;;;;23.78;66.93;102577.44;4982226;28;20030;-64
2022/07/12 07:47:12;;;;;;;8.73;7.55;;;;;;;23.67;67.76;102577.25;5003971;28;20042;-65
2022/07/12 07:49:38;;;;;;;9.25;6.63;;;;;;;23.42;68.96;102576.09;5002945;28;20026;-64
2022/07/12 07:52:03;;;;;;;11.02;7.63;;;;;;;23.55;68.65;102574.38;4984838;28;20065;-65
2022/07/12 07:54:29;;;;;;;10.20;7.72;;;;;;;23.59;68.10;102580.41;4983147;28;20022;-65
2022/07/12 07:56:54;;;;;;;7.13;6.00;;;;;;;23.57;68.73;102583.19;5000029;28;20038;-64
2022/07/12 07:59:19;;;;;;;8.60;7.50;;;;;;;23.41;68.55;102574.34;5002379;28;20014;-64
2022/07/12 08:01:45;;;;;;;10.32;6.75;;;;;;;23.46;68.36;102575.81;4988189;28;20242;-64
2022/07/12 08:04:18;;;;;;;8.10;6.70;;;;;;;23.55;68.54;102582.44;4983381;28;20057;-64
2022/07/12 08:06:44;;;;;;;8.55;7.63;;;;;;;23.57;68.36;102583.19;4995584;28;20377;-65
2022/07/12 08:09:09;;;;;;;9.52;6.80;;;;;;;23.56;68.66;102585.97;5003640;28;20040;-64
2022/07/12 08:11:35;;;;;;;9.32;7.32;;;;;;;23.78;68.45;102580.13;4987863;28;20045;-63
2022/07/12 08:14:01;;;;;;;8.20;6.10;;;;;;;23.91;67.81;102584.72;4982939;28;20469;-64
2022/07/12 08:16:26;;;;;;;7.85;6.32;;;;;;;23.95;66.16;102587.13;4973590;28;20042;-64
2022/07/12 08:18:52;;;;;;;9.18;5.32;;;;;;;24.16;64.63;102591.25;4968526;28;20031;-64
2022/07/12 08:21:17;;;;;;;10.25;4.43;;;;;;;24.15;63.81;102595.81;4987910;28;20369;-64
2022/07/12 08:23:43;;;;;;;4.20;3.80;;;;;;;24.11;62.81;102591.56;5007040;28;20080;-65
2022/07/12 08:26:08;;;;;;;5.10;3.50;;;;;;;24.34;61.06;102598.16;5005689;28;20444;-66
2022/07/12 08:28:33;;;;;;;10.02;3.65;;;;;;;24.40;60.88;102586.09;5006818;28;20033;-65
2022/07/12 08:30:59;;;;;;;4.47;3.40;;;;;;;24.60;60.35;102582.09;5002270;28;20357;-65
2022/07/12 08:33:24;;;;;;;4.50;3.05;;;;;;;24.66;60.09;102583.53;5006353;28;20045;-63
2022/07/12 08:35:50;;;;;;;4.30;2.72;;;;;;;24.87;59.10;102572.28;5005548;28;20030;-65
2022/07/12 08:38:15;;;;;;;3.95;2.33;;;;;;;25.10;59.40;102572.53;4988995;28;20483;-64
2022/07/12 08:40:41;;;;;;;5.88;2.30;;;;;;;25.46;58.67;102573.63;4986576;28;20117;-66
2022/07/12 08:43:07;;;;;;;6.25;3.20;;;;;;;25.77;57.19;102567.91;5000439;28;20065;-64
2022/07/12 08:45:32;;;;;;;10.52;3.15;;;;;;;25.81;56.98;102576.66;5006473;28;20061;-65
2022/07/12 08:47:57;;;;;;;15.95;3.70;;;;;;;25.85;56.70;102578.16;4979677;28;20070;-65
2022/07/12 08:50:24;;;;;;;7.38;2.85;;;;;;;25.92;56.03;102579.44;4966984;28;20105;-64
2022/07/12 08:52:51;;;;;;;3.15;2.55;;;;;;;26.17;54.72;102582.19;4967260;28;20043;-67
2022/07/12 08:55:25;;;;;;;7.63;3.10;;;;;;;26.47;53.56;102573.66;4966956;28;20022;-65
2022/07/12 08:57:52;;;;;;;4.55;3.20;;;;;;;26.58;52.64;102575.53;4981320;28;20025;-63
2022/07/12 09:00:19;;;;;;;17.33;3.33;;;;;;;26.83;52.55;102573.69;5006060;28;20022;-64
2022/07/12 09:02:51;;;;;;;11.00;3.83;;;;;;;26.65;52.64;102570.53;5005245;28;20442;-63
2022/07/12 09:05:19;;;;;;;9.00;3.60;;;;;;;27.04;51.14;102564.06;5005611;28;20054;-66
2022/07/12 09:07:45;;;;;;;3.53;3.00;;;;;;;26.93;52.46;102564.84;4999832;28;20113;-65
2022/07/12 09:10:12;;;;;;;7.03;3.40;;;;;;;26.72;51.40;102570.94;4986059;28;20487;-63
2022/07/12 09:12:38;;;;;;;5.38;3.70;;;;;;;26.72;51.91;102576.34;4992761;28;20212;-64
2022/07/12 09:15:21;;;;;;;6.00;3.53;;;;;;;26.81;53.41;102574.75;5006001;28;20056;-66
2022/07/12 09:17:58;;;;;;;12.23;4.45;;;;;;;26.89;52.07;102572.34;5005018;28;20052;-64
2022/07/12 09:20:33;;;;;;;5.70;3.03;;;;;;;26.91;52.59;102586.59;5005558;28;20022;-65
2022/07/12 09:23:01;;;;;;;4.30;3.55;;;;;;;27.08;51.46;102576.34;4995874;28;20034;-64
2022/07/12 09:25:26;;;;;;;5.63;3.05;;;;;;;27.09;50.47;102583.50;4985385;28;20097;-64
2022/07/12 09:27:56;;;;;;;5.55;2.88;;;;;;;27.19;50.17;102583.63;4983911;28;20473;-66
2022/07/12 09:30:27;;;;;;;5.18;2.90;;;;;;;27.23;50.84;102586.00;4985444;28;20031;-65
2022/07/12 09:38:20;;;;;;;10.32;2.38;;;;;;;27.13;50.40;102568.75;4991957;28;20049;-65
2022/07/12 09:40:47;;;;;;;8.05;2.60;;;;;;;26.99;50.31;102569.81;5005291;28;20404;-65
2022/07/12 09:43:13;;;;;;;5.65;3.05;;;;;;;26.68;51.09;102569.44;4992170;28;20027;-66
2022/07/12 09:45:39;;;;;;;4.28;2.50;;;;;;;26.88;51.17;102573.34;4965829;28;20065;-64
2022/07/12 09:48:05;;;;;;;6.13;2.30;;;;;;;27.00;50.31;102569.69;4969155;28;20053;-64
2022/07/12 09:50:32;;;;;;;10.10;2.78;;;;;;;26.99;52.28;102581.50;4984110;28;20022;-65
2022/07/12 09:52:59;;;;;;;3.80;2.58;;;;;;;27.22;49.58;102572.56;4985323;28;20030;-64
2022/07/12 09:55:25;;;;;;;6.88;2.53;;;;;;;27.15;50.36;102572.19;5001162;28;20034;-64
2022/07/12 09:57:55;;;;;;;3.80;2.67;;;;;;;27.31;51.04;102571.00;5002280;28;20029;-65
2022/07/12 10:00:21;;;;;;;6.55;2.78;;;;;;;27.40;50.40;102569.41;4986696;28;20122;-64
2022/07/12 10:02:47;;;;;;;8.55;3.20;;;;;;;27.53;51.62;102563.84;4964292;28;20115;-64
2022/07/12 10:05:13;;;;;;;8.15;2.65;;;;;;;27.42;51.99;102567.44;4969585;28;20117;-65
2022/07/12 10:07:38;;;;;;;6.18;3.38;;;;;;;27.46;50.33;102574.31;4983698;28;20042;-64
2022/07/12 10:10:04;;;;;;;3.55;2.78;;;;;;;27.56;50.66;102574.44;4987387;28;20010;-63
2022/07/12 10:12:30;;;;;;;2.78;2.58;;;;;;;27.48;49.27;102569.66;5004113;28;20025;-65
2022/07/12 10:15:02;;;;;;;2.92;2.60;;;;;;;27.52;50.70;102568.44;5001619;28;20128;-66
2022/07/12 10:17:28;;;;;;;8.02;3.08;;;;;;;27.55;48.75;102570.91;5003548;28;20759;-64
2022/07/12 10:20:22;;;;;;;6.47;2.97;;;;;;;27.38;49.67;102577.63;4987065;28;20034;-63
2022/07/12 10:22:47;;;;;;;7.63;3.13;;;;;;;27.68;46.82;102584.31;4984346;28;20077;-65
2022/07/12 10:25:31;;;;;;;3.20;2.90;;;;;;;27.62;45.94;102582.06;4966881;28;20066;-63
2022/07/12 10:27:58;;;;;;;5.93;2.65;;;;;;;27.55;47.10;102595.25;4964095;28;20637;-64
2022/07/12 10:30:23;;;;;;;3.78;2.17;;;;;;;27.76;46.18;102591.84;4997565;28;20010;-64
2022/07/12 10:32:53;;;;;;;3.90;2.40;;;;;;;27.92;45.50;102594.16;5004272;28;20028;-65
2022/07/12 10:35:23;;;;;;;4.80;2.10;;;;;;;27.87;45.96;102583.69;4980334;28;20030;-65
2022/07/12 10:38:15;;;;;;;2.10;1.90;;;;;;;28.08;45.75;102584.78;4964739;28;20469;-65
2022/07/12 10:40:43;;;;;;;2.90;2.10;;;;;;;27.99;46.81;102587.25;4987086;28;20040;-65
2022/07/12 10:43:09;;;;;;;2.78;1.90;;;;;;;28.06;46.45;102582.22;5002047;28;20029;-64
2022/07/12 10:45:38;;;;;;;4.60;1.98;;;;;;;28.40;45.62;102585.81;4993304;28;20446;-65
2022/07/12 10:48:20;;;;;;;3.67;2.28;;;;;;;28.37;44.71;102586.94;4984053;28;20030;-64
2022/07/12 10:50:45;;;;;;;3.35;2.70;;;;;;;28.41;45.50;102583.00;4993070;28;20068;-64
2022/07/12 10:53:20;;;;;;;5.70;2.50;;;;;;;28.39;45.56;102579.56;5003674;28;20025;-66
2022/07/12 10:56:07;;;;;;;3.85;2.28;;;;;;;28.45;44.99;102576.34;5002405;28;20493;-65
2022/07/12 10:58:41;;;;;;;5.07;2.70;;;;;;;28.48;45.08;102576.06;5003101;28;20053;-66
2022/07/12 11:01:08;;;;;;;2.53;1.88;;;;;;;28.76;46.33;102579.16;5003536;28;20029;-67
2022/07/12 11:03:50;;;;;;;4.65;2.90;;;;;;;28.67;44.99;102577.22;5003904;28;20353;-64
2022/07/12 11:06:21;;;;;;;4.10;2.30;;;;;;;28.91;44.91;102573.41;4991262;28;20515;-65
2022/07/12 11:08:51;;;;;;;4.47;2.38;;;;;;;29.00;43.50;102574.50;4984027;28;20034;-65
2022/07/12 11:11:17;;;;;;;2.55;2.28;;;;;;;28.86;43.51;102568.38;4992456;28;20022;-67
2022/07/12 11:13:42;;;;;;;5.57;3.15;;;;;;;29.06;42.00;102568.53;5003080;28;20022;-64
2022/07/12 11:16:08;;;;;;;5.05;3.03;;;;;;;29.39;41.04;102568.44;4990892;28;20109;-65
2022/07/12 11:18:34;;;;;;;3.78;2.35;;;;;;;29.70;40.85;102568.44;4983394;28;20019;-66
2022/07/12 11:21:01;;;;;;;6.93;1.95;;;;;;;29.95;36.54;102571.66;4982763;28;20032;-65
2022/07/12 11:23:27;;;;;;;2.13;1.80;;;;;;;29.82;35.49;102574.63;4983529;28;20094;-66
2022/07/12 11:25:56;;;;;;;2.00;1.80;;;;;;;29.66;37.84;102569.72;4989712;28;20033;-65
2022/07/12 11:28:23;;;;;;;4.60;2.15;;;;;;;29.75;39.14;102563.47;5002530;28;20051;-66
2022/07/12 11:30:50;;;;;;;3.58;2.38;;;;;;;29.97;37.20;102560.66;4990557;28;20031;-65